SWA2641 KSAN-KLAS
Flight info
| Callsign | SWA2641 |
|---|---|
| Flight time | N/A |
| Altitude | 29000 |
| Route | PADRZ2 CHKNN SEBBY YELAH MISEN RNDRZ4 |
| Aircraft | B38M/M-SADE2E3GHIJ4J7P2RWZ/LB1D1 |
Departure
| Time | 2026-04-24 00:52 |
|---|---|
| Airport | San Diego International Airport (KSAN) |
Arrival
| Time | N/A |
|---|---|
| Airport | Harry Reid International Airport (KLAS) |
| Time | Latitude | Longitude | Altitude | Speed | Heading |
|---|---|---|---|---|---|
| 2026-04-24 00:34 | 32.73340 | -117.19912 | 24 ft | 0 kts | 117° |
| 2026-04-24 00:41 | 32.73340 | -117.19913 | 22 ft | 2 kts | 117° |
| 2026-04-24 00:41 | 32.73349 | -117.19939 | 27 ft | 4 kts | 97° |
| 2026-04-24 00:42 | 32.73348 | -117.19970 | 28 ft | 4 kts | 66° |
| 2026-04-24 00:42 | 32.73333 | -117.19994 | 26 ft | 4 kts | 26° |
| 2026-04-24 00:42 | 32.73324 | -117.19998 | 29 ft | 0 kts | 12° |
| 2026-04-24 00:45 | 32.73325 | -117.19998 | 29 ft | 1 kts | 12° |
| 2026-04-24 00:45 | 32.73353 | -117.19990 | 28 ft | 8 kts | 13° |
| 2026-04-24 00:45 | 32.73439 | -117.19958 | 27 ft | 14 kts | 20° |
| 2026-04-24 00:46 | 32.73480 | -117.19902 | 26 ft | 7 kts | 95° |
| 2026-04-24 00:46 | 32.73455 | -117.19796 | 26 ft | 21 kts | 107° |
| 2026-04-24 00:46 | 32.73405 | -117.19590 | 26 ft | 29 kts | 106° |
| 2026-04-24 00:46 | 32.73345 | -117.19346 | 25 ft | 34 kts | 107° |
| 2026-04-24 00:47 | 32.73274 | -117.19053 | 25 ft | 38 kts | 105° |
| 2026-04-24 00:47 | 32.73201 | -117.18749 | 36 ft | 40 kts | 106° |
| 2026-04-24 00:47 | 32.73122 | -117.18423 | 23 ft | 42 kts | 107° |
| 2026-04-24 00:47 | 32.73047 | -117.18113 | 19 ft | 39 kts | 107° |
| 2026-04-24 00:48 | 32.72979 | -117.17831 | 18 ft | 26 kts | 106° |
| 2026-04-24 00:48 | 32.72971 | -117.17801 | 20 ft | 3 kts | 106° |
| 2026-04-24 00:48 | 32.72961 | -117.17758 | 18 ft | 8 kts | 107° |
| 2026-04-24 00:48 | 32.72951 | -117.17707 | 18 ft | 1 kts | 89° |
| 2026-04-24 00:49 | 32.72951 | -117.17695 | 19 ft | 2 kts | 90° |
| 2026-04-24 00:49 | 32.72952 | -117.17685 | 19 ft | 0 kts | 83° |
| 2026-04-24 00:49 | 32.72952 | -117.17684 | 19 ft | 1 kts | 83° |
| 2026-04-24 00:49 | 32.72952 | -117.17680 | 20 ft | 0 kts | 82° |
| 2026-04-24 00:50 | 32.72953 | -117.17672 | 20 ft | 4 kts | 79° |
| 2026-04-24 00:50 | 32.72981 | -117.17593 | 24 ft | 13 kts | 41° |
| 2026-04-24 00:50 | 32.73023 | -117.17605 | 22 ft | 9 kts | 307° |
| 2026-04-24 00:50 | 32.73033 | -117.17630 | 22 ft | 2 kts | 288° |
| 2026-04-24 00:51 | 32.73034 | -117.17633 | 24 ft | 0 kts | 287° |
| 2026-04-24 00:51 | 32.73034 | -117.17635 | 24 ft | 1 kts | 287° |
| 2026-04-24 00:51 | 32.73047 | -117.17686 | 24 ft | 21 kts | 287° |
| 2026-04-24 00:51 | 32.73169 | -117.18192 | 27 ft | 103 kts | 285° |
| 2026-04-24 00:52 | 32.73434 | -117.19255 | 122 ft | 155 kts | 286° |
| 2026-04-24 00:52 | 32.73774 | -117.20533 | 799 ft | 169 kts | 287° |
| 2026-04-24 00:52 | 32.74133 | -117.21932 | 1613 ft | 185 kts | 286° |
| 2026-04-24 00:52 | 32.74554 | -117.23433 | 2469 ft | 201 kts | 294° |
| 2026-04-24 00:53 | 32.75416 | -117.24857 | 3164 ft | 226 kts | 310° |
| 2026-04-24 00:53 | 32.76453 | -117.26361 | 3972 ft | 245 kts | 307° |
| 2026-04-24 00:53 | 32.77519 | -117.27999 | 4849 ft | 262 kts | 306° |
| 2026-04-24 00:53 | 32.78615 | -117.29739 | 6006 ft | 263 kts | 306° |
| 2026-04-24 00:54 | 32.79715 | -117.31503 | 7078 ft | 268 kts | 307° |
| 2026-04-24 00:54 | 32.80880 | -117.33278 | 7760 ft | 274 kts | 307° |
| 2026-04-24 00:54 | 32.82048 | -117.35067 | 7935 ft | 274 kts | 306° |
| 2026-04-24 00:54 | 32.83208 | -117.36856 | 7976 ft | 273 kts | 306° |
| 2026-04-24 00:55 | 32.84350 | -117.38624 | 7986 ft | 273 kts | 306° |
| 2026-04-24 00:55 | 32.85507 | -117.40419 | 7991 ft | 273 kts | 306° |
| 2026-04-24 00:55 | 32.86660 | -117.42211 | 8016 ft | 275 kts | 306° |
| 2026-04-24 00:55 | 32.87822 | -117.44019 | 8813 ft | 273 kts | 306° |
| 2026-04-24 00:56 | 32.88973 | -117.45813 | 9967 ft | 275 kts | 305° |
| 2026-04-24 00:56 | 32.90161 | -117.47661 | 10705 ft | 289 kts | 305° |
| 2026-04-24 00:56 | 32.91423 | -117.49628 | 11223 ft | 310 kts | 305° |
| 2026-04-24 00:56 | 32.92774 | -117.51732 | 11765 ft | 328 kts | 305° |
| 2026-04-24 00:57 | 32.94183 | -117.53927 | 12442 ft | 339 kts | 305° |
| 2026-04-24 00:57 | 32.95620 | -117.56166 | 13404 ft | 341 kts | 305° |
| 2026-04-24 00:57 | 32.98463 | -117.60600 | 15588 ft | 330 kts | 304° |
| 2026-04-24 00:58 | 32.99842 | -117.62755 | 16621 ft | 332 kts | 304° |
| 2026-04-24 00:58 | 33.01277 | -117.64998 | 17037 ft | 348 kts | 304° |
| 2026-04-24 00:58 | 33.02771 | -117.67331 | 17592 ft | 358 kts | 304° |
| 2026-04-24 00:58 | 33.04284 | -117.69697 | 18422 ft | 360 kts | 304° |
| 2026-04-24 00:59 | 33.05809 | -117.72080 | 19080 ft | 364 kts | 305° |
| 2026-04-24 00:59 | 33.07637 | -117.74214 | 19775 ft | 371 kts | 316° |
| 2026-04-24 00:59 | 33.09610 | -117.76222 | 20438 ft | 375 kts | 315° |
| 2026-04-24 00:59 | 33.11600 | -117.78257 | 21087 ft | 379 kts | 315° |
| 2026-04-24 01:00 | 33.13582 | -117.80278 | 21727 ft | 382 kts | 315° |
| 2026-04-24 01:00 | 33.15610 | -117.82344 | 22365 ft | 386 kts | 315° |
| 2026-04-24 01:00 | 33.17661 | -117.84434 | 23001 ft | 389 kts | 315° |
| 2026-04-24 01:00 | 33.19749 | -117.86522 | 23630 ft | 394 kts | 316° |
| 2026-04-24 01:01 | 33.21885 | -117.88594 | 24123 ft | 397 kts | 316° |
| 2026-04-24 01:01 | 33.24034 | -117.90687 | 24632 ft | 400 kts | 316° |
| 2026-04-24 01:01 | 33.26199 | -117.92801 | 25140 ft | 403 kts | 315° |
| 2026-04-24 01:01 | 33.28380 | -117.94932 | 25637 ft | 406 kts | 315° |
| 2026-04-24 01:02 | 33.30546 | -117.97051 | 26118 ft | 410 kts | 315° |
| 2026-04-24 01:02 | 33.32757 | -117.99214 | 26600 ft | 413 kts | 315° |
| 2026-04-24 01:02 | 33.34985 | -118.01397 | 27078 ft | 415 kts | 315° |
| 2026-04-24 01:02 | 33.37231 | -118.03598 | 27544 ft | 419 kts | 315° |
| 2026-04-24 01:03 | 33.39492 | -118.05815 | 28021 ft | 422 kts | 315° |
| 2026-04-24 01:03 | 33.41769 | -118.08049 | 28449 ft | 425 kts | 315° |
| 2026-04-24 01:03 | 33.44065 | -118.10305 | 28854 ft | 429 kts | 315° |
| 2026-04-24 01:03 | 33.46390 | -118.12590 | 28999 ft | 436 kts | 315° |
| 2026-04-24 01:04 | 33.48753 | -118.14913 | 28994 ft | 442 kts | 315° |
| 2026-04-24 01:04 | 33.53479 | -118.19565 | 29003 ft | 443 kts | 315° |
| 2026-04-24 01:05 | 33.58406 | -118.24037 | 28999 ft | 452 kts | 327° |
| 2026-04-24 01:05 | 33.64146 | -118.27208 | 28986 ft | 454 kts | 329° |
| 2026-04-24 01:06 | 33.70162 | -118.29635 | 28974 ft | 470 kts | 348° |
| 2026-04-24 01:06 | 33.73472 | -118.29524 | 28977 ft | 484 kts | 3° |
| 2026-04-24 01:06 | 33.76744 | -118.28418 | 28976 ft | 496 kts | 18° |
| 2026-04-24 01:06 | 33.79742 | -118.26307 | 28975 ft | 507 kts | 34° |
| 2026-04-24 01:07 | 33.82156 | -118.23263 | 28979 ft | 515 kts | 52° |
| 2026-04-24 01:07 | 33.86245 | -118.16178 | 28977 ft | 516 kts | 51° |
| 2026-04-24 01:08 | 33.90416 | -118.09151 | 28959 ft | 516 kts | 51° |
| 2026-04-24 01:08 | 33.94583 | -118.02110 | 28963 ft | 516 kts | 51° |
| 2026-04-24 01:09 | 33.98717 | -117.95112 | 28957 ft | 516 kts | 51° |
| 2026-04-24 01:09 | 34.02878 | -117.88054 | 28981 ft | 516 kts | 51° |
| 2026-04-24 01:10 | 34.07030 | -117.80999 | 28984 ft | 516 kts | 52° |
| 2026-04-24 01:10 | 34.11466 | -117.74227 | 28994 ft | 514 kts | 46° |
| 2026-04-24 01:11 | 34.16001 | -117.67644 | 28972 ft | 514 kts | 47° |
| 2026-04-24 01:11 | 34.20544 | -117.60983 | 28973 ft | 512 kts | 47° |
| 2026-04-24 01:12 | 34.25066 | -117.54341 | 28942 ft | 512 kts | 47° |
| 2026-04-24 01:12 | 34.29584 | -117.47692 | 28936 ft | 512 kts | 47° |
| 2026-04-24 01:13 | 34.34105 | -117.41024 | 28930 ft | 512 kts | 47° |
| 2026-04-24 01:13 | 34.38586 | -117.34404 | 28921 ft | 512 kts | 47° |
| 2026-04-24 01:14 | 34.43098 | -117.27726 | 28925 ft | 512 kts | 47° |
| 2026-04-24 01:14 | 34.47607 | -117.21039 | 28990 ft | 512 kts | 47° |
| 2026-04-24 01:15 | 34.52084 | -117.14388 | 28931 ft | 512 kts | 47° |
| 2026-04-24 01:15 | 34.56581 | -117.07693 | 28920 ft | 511 kts | 47° |
| 2026-04-24 01:16 | 34.61063 | -117.01009 | 28923 ft | 511 kts | 47° |
| 2026-04-24 01:16 | 34.65548 | -116.94308 | 28932 ft | 511 kts | 47° |
| 2026-04-24 01:17 | 34.70023 | -116.87608 | 28938 ft | 511 kts | 47° |
| 2026-04-24 01:17 | 34.74463 | -116.80949 | 28951 ft | 510 kts | 47° |
| 2026-04-24 01:18 | 34.78925 | -116.74245 | 28949 ft | 510 kts | 47° |
| 2026-04-24 01:18 | 34.83381 | -116.67538 | 28950 ft | 510 kts | 47° |
| 2026-04-24 01:19 | 34.88411 | -116.61630 | 28952 ft | 502 kts | 34° |
| 2026-04-24 01:19 | 34.93818 | -116.56342 | 28960 ft | 502 kts | 33° |
| 2026-04-24 01:20 | 34.99284 | -116.51036 | 28932 ft | 502 kts | 33° |
| 2026-04-24 01:20 | 35.04748 | -116.45726 | 28928 ft | 503 kts | 33° |
| 2026-04-24 01:21 | 35.10188 | -116.40353 | 28921 ft | 506 kts | 39° |
| 2026-04-24 01:21 | 35.15081 | -116.34125 | 28915 ft | 507 kts | 42° |
| 2026-04-24 01:21 | 35.17482 | -116.31026 | 26599 ft | 526 kts | 42° |
| 2026-04-24 01:22 | 35.19942 | -116.27798 | 26483 ft | 504 kts | 42° |
| 2026-04-24 01:22 | 35.22321 | -116.24703 | 25685 ft | 498 kts | 43° |
| 2026-04-24 01:22 | 35.24640 | -116.21553 | 24886 ft | 497 kts | 44° |
| 2026-04-24 01:22 | 35.26955 | -116.18401 | 24505 ft | 499 kts | 44° |
| 2026-04-24 01:23 | 35.29275 | -116.15245 | 24053 ft | 498 kts | 44° |
| 2026-04-24 01:23 | 35.31586 | -116.12096 | 23635 ft | 495 kts | 44° |
| 2026-04-24 01:23 | 35.33863 | -116.08967 | 23134 ft | 491 kts | 44° |
| 2026-04-24 01:23 | 35.36127 | -116.05855 | 22624 ft | 487 kts | 44° |
| 2026-04-24 01:24 | 35.38371 | -116.02769 | 22121 ft | 482 kts | 44° |
| 2026-04-24 01:24 | 35.40562 | -115.99753 | 21646 ft | 478 kts | 44° |
| 2026-04-24 01:24 | 35.42754 | -115.96734 | 21072 ft | 470 kts | 44° |
| 2026-04-24 01:24 | 35.44907 | -115.93765 | 20515 ft | 463 kts | 44° |
| 2026-04-24 01:25 | 35.47007 | -115.90867 | 19945 ft | 444 kts | 44° |
| 2026-04-24 01:25 | 35.49013 | -115.88096 | 19432 ft | 426 kts | 44° |
| 2026-04-24 01:25 | 35.50942 | -115.85431 | 18886 ft | 410 kts | 45° |
| 2026-04-24 01:25 | 35.52806 | -115.82852 | 18449 ft | 395 kts | 45° |
| 2026-04-24 01:26 | 35.54592 | -115.80380 | 18038 ft | 379 kts | 45° |
| 2026-04-24 01:26 | 35.56318 | -115.77989 | 17318 ft | 373 kts | 45° |
| 2026-04-24 01:26 | 35.58029 | -115.75618 | 16596 ft | 368 kts | 45° |
| 2026-04-24 01:26 | 35.59723 | -115.73308 | 16031 ft | 358 kts | 44° |
| 2026-04-24 01:27 | 35.61340 | -115.71130 | 15813 ft | 340 kts | 44° |
| 2026-04-24 01:27 | 35.62900 | -115.69024 | 15639 ft | 331 kts | 45° |
| 2026-04-24 01:27 | 35.64432 | -115.66952 | 15471 ft | 326 kts | 44° |
| 2026-04-24 01:27 | 35.65957 | -115.64889 | 15298 ft | 325 kts | 44° |
| 2026-04-24 01:28 | 35.67478 | -115.62831 | 15136 ft | 324 kts | 45° |
| 2026-04-24 01:28 | 35.68990 | -115.60782 | 14974 ft | 323 kts | 45° |
| 2026-04-24 01:28 | 35.70495 | -115.58742 | 14810 ft | 322 kts | 45° |
| 2026-04-24 01:28 | 35.71996 | -115.56706 | 14650 ft | 320 kts | 45° |
| 2026-04-24 01:29 | 35.73680 | -115.54971 | 14452 ft | 314 kts | 27° |
| 2026-04-24 01:29 | 35.75585 | -115.53665 | 14305 ft | 313 kts | 27° |
| 2026-04-24 01:29 | 35.77475 | -115.52330 | 14161 ft | 313 kts | 27° |
| 2026-04-24 01:29 | 35.79333 | -115.51024 | 14007 ft | 312 kts | 27° |
| 2026-04-24 01:30 | 35.81227 | -115.49694 | 13908 ft | 319 kts | 27° |
| 2026-04-24 01:30 | 35.83196 | -115.48312 | 13443 ft | 339 kts | 27° |
| 2026-04-24 01:30 | 35.85257 | -115.46866 | 13270 ft | 340 kts | 28° |
| 2026-04-24 01:30 | 35.87309 | -115.45426 | 12946 ft | 338 kts | 27° |
| 2026-04-24 01:31 | 35.89349 | -115.43994 | 12917 ft | 338 kts | 28° |
| 2026-04-24 01:31 | 35.91397 | -115.42559 | 12870 ft | 339 kts | 28° |
| 2026-04-24 01:31 | 35.93442 | -115.41134 | 12538 ft | 337 kts | 27° |
| 2026-04-24 01:31 | 35.95455 | -115.39728 | 12152 ft | 336 kts | 28° |
| 2026-04-24 01:32 | 35.97475 | -115.38316 | 11850 ft | 329 kts | 28° |
| 2026-04-24 01:32 | 35.99387 | -115.36928 | 11715 ft | 310 kts | 34° |
| 2026-04-24 01:32 | 36.00791 | -115.34991 | 11477 ft | 301 kts | 60° |
| 2026-04-24 01:32 | 36.01373 | -115.32537 | 11293 ft | 301 kts | 85° |
| 2026-04-24 01:33 | 36.01315 | -115.29942 | 11065 ft | 302 kts | 91° |
| 2026-04-24 01:33 | 36.01211 | -115.27396 | 10765 ft | 293 kts | 92° |
| 2026-04-24 01:33 | 36.01100 | -115.24924 | 10475 ft | 284 kts | 92° |
| 2026-04-24 01:33 | 36.00987 | -115.22524 | 10226 ft | 276 kts | 92° |
| 2026-04-24 01:34 | 36.00872 | -115.20168 | 9992 ft | 273 kts | 92° |
| 2026-04-24 01:34 | 36.00758 | -115.17848 | 9741 ft | 269 kts | 92° |
| 2026-04-24 01:34 | 36.00643 | -115.15554 | 9467 ft | 267 kts | 92° |
| 2026-04-24 01:34 | 36.00530 | -115.13311 | 9220 ft | 263 kts | 92° |
| 2026-04-24 01:35 | 36.00418 | -115.11085 | 9065 ft | 256 kts | 92° |
| 2026-04-24 01:35 | 36.00307 | -115.08913 | 8833 ft | 253 kts | 92° |
| 2026-04-24 01:35 | 36.00197 | -115.06743 | 8493 ft | 253 kts | 93° |
| 2026-04-24 01:35 | 36.00087 | -115.04584 | 8269 ft | 250 kts | 93° |
| 2026-04-24 01:36 | 35.99978 | -115.02468 | 8121 ft | 243 kts | 93° |
| 2026-04-24 01:36 | 35.99960 | -115.00419 | 7905 ft | 238 kts | 78° |
| 2026-04-24 01:36 | 36.00534 | -114.98507 | 7372 ft | 242 kts | 54° |
| 2026-04-24 01:36 | 36.01732 | -114.97007 | 6779 ft | 252 kts | 31° |
| 2026-04-24 01:37 | 36.03353 | -114.96125 | 6188 ft | 259 kts | 17° |
| 2026-04-24 01:37 | 36.05060 | -114.95344 | 5507 ft | 264 kts | 20° |
| 2026-04-24 01:37 | 36.06698 | -114.94433 | 5071 ft | 259 kts | 33° |
| 2026-04-24 01:37 | 36.07877 | -114.92811 | 4733 ft | 253 kts | 63° |
| 2026-04-24 01:38 | 36.08488 | -114.90785 | 4820 ft | 252 kts | 75° |
| 2026-04-24 01:38 | 36.08533 | -114.88621 | 5274 ft | 256 kts | 104° |